Marathon Shores, Florida
Current Conditions -  °F | °C
As of 5:53 AM on Wednesday 26 Nov 2014 (Local Time) from KMTH Reporting Station
Clear Clear  
Wind Chill: 79°   Ceiling: Unl
Heat Index: 84°   Visibility: 9mi
Dew Point: 79°   Wind: 7mph
Humidity: 100%   Direction: 210°SSW
Pressure: 29.96"   Gusts: NA
Location:  24.73°N, 81.05°W
Report Text: KMTH 261053Z AUTO 21006KT 9SM CLR 26/26 A2996 RMK AO2 SLP146 T02610261
Loading
Personal Weather Stations






























Interactive Weather Map New forecast layout! Learn more

10-Day Weather Forecast

Advertisements
Track Severe Weather on mobile